createdAt,value
2018-01-29T00:00:51.459Z,89.86
2018-01-29T00:01:58.617Z,89.86
2018-01-29T00:03:04.986Z,89.87
2018-01-29T00:04:11.178Z,89.94
2018-01-29T00:05:17.087Z,89.80
2018-01-29T00:06:23.259Z,89.27
2018-01-29T00:07:29.660Z,89.29
2018-01-29T00:08:35.920Z,89.47
2018-01-29T00:09:42.126Z,89.51
2018-01-29T00:10:48.271Z,89.52
2018-01-29T00:11:54.932Z,89.91
2018-01-29T00:13:01.747Z,89.88
2018-01-29T00:14:08.974Z,89.73
2018-01-29T00:15:15.774Z,89.76
2018-01-29T00:16:21.973Z,89.69
2018-01-29T00:17:28.078Z,89.59
2018-01-29T00:18:40.326Z,89.80
2018-01-29T00:19:46.536Z,89.89
2018-01-29T00:20:52.519Z,89.96
2018-01-29T00:21:58.704Z,90.06
2018-01-29T00:23:05.126Z,90.12
2018-01-29T00:24:12.075Z,90.18
2018-01-29T00:25:17.583Z,90.08
2018-01-29T00:26:23.756Z,90.30
2018-01-29T00:27:29.919Z,90.32
2018-01-29T00:28:36.095Z,90.20
2018-01-29T00:29:42.199Z,90.11
2018-01-29T00:30:48.370Z,90.19
2018-01-29T00:31:54.613Z,90.24
2018-01-29T00:33:02.179Z,90.23
2018-01-29T00:34:08.434Z,90.46
2018-01-29T00:35:14.603Z,90.11
2018-01-29T00:36:21.647Z,89.94
2018-01-29T00:37:27.068Z,89.77
2018-01-29T00:38:33.282Z,89.83
2018-01-29T00:39:39.412Z,90.07
2018-01-29T00:40:45.296Z,90.24
2018-01-29T00:41:54.372Z,89.95
2018-01-29T00:43:00.523Z,90.07
2018-01-29T00:44:06.656Z,90.38
2018-01-29T00:45:13.018Z,90.22
2018-01-29T00:46:20.116Z,90.34
2018-01-29T00:47:26.255Z,90.19
2018-01-29T00:48:32.226Z,90.36
2018-01-29T00:49:38.489Z,90.35
2018-01-29T00:50:44.671Z,90.41
2018-01-29T00:51:50.859Z,90.66
2018-01-29T00:52:57.066Z,90.86
2018-01-29T00:54:03.526Z,90.93
2018-01-29T00:55:09.411Z,90.85
2018-01-29T00:56:15.401Z,90.80
2018-01-29T00:57:21.527Z,91.11
2018-01-29T00:58:29.141Z,91.09
2018-01-29T00:59:35.431Z,90.97
2018-01-29T01:00:41.623Z,91.00
2018-01-29T01:01:48.179Z,90.93
2018-01-29T01:02:54.286Z,90.84
2018-01-29T01:04:00.517Z,91.09
2018-01-29T01:05:06.508Z,91.21
2018-01-29T01:06:13.312Z,91.05
2018-01-29T01:07:19.430Z,90.90
2018-01-29T01:08:25.649Z,91.05
2018-01-29T01:09:31.543Z,91.36
2018-01-29T01:10:37.838Z,91.19
2018-01-29T01:11:44.013Z,91.08
2018-01-29T01:12:50.271Z,90.63
2018-01-29T01:13:56.968Z,90.50
2018-01-29T01:15:03.148Z,90.59
2018-01-29T01:16:09.388Z,90.83
2018-01-29T01:17:15.264Z,91.05
2018-01-29T01:18:21.524Z,91.33
2018-01-29T01:19:28.217Z,90.86
2018-01-29T01:20:35.437Z,90.81
2018-01-29T01:21:41.668Z,90.93
2018-01-29T01:22:48.101Z,90.89
2018-01-29T01:23:54.309Z,90.92
2018-01-29T01:25:00.272Z,90.98
2018-01-29T01:26:06.883Z,91.06
2018-01-29T01:27:12.783Z,91.21
2018-01-29T01:28:19.060Z,91.63
2018-01-29T01:29:26.341Z,91.62
2018-01-29T01:30:32.295Z,91.38
2018-01-29T01:31:39.121Z,91.20
2018-01-29T01:32:45.284Z,91.36
2018-01-29T01:33:51.429Z,91.32
2018-01-29T01:34:57.568Z,91.14
2018-01-29T01:36:03.718Z,91.04
2018-01-29T01:37:09.929Z,91.16
2018-01-29T01:38:19.124Z,91.14
2018-01-29T01:39:25.104Z,91.25
2018-01-29T01:40:31.308Z,91.03
2018-01-29T01:41:37.580Z,91.00
2018-01-29T01:42:43.389Z,91.18
2018-01-29T01:43:49.518Z,91.25
2018-01-29T01:44:55.700Z,91.37
2018-01-29T01:46:02.492Z,91.19
2018-01-29T01:47:08.795Z,91.17
2018-01-29T01:48:15.679Z,91.31
2018-01-29T01:49:37.096Z,91.15
2018-01-29T01:50:43.304Z,91.18
2018-01-29T01:51:49.537Z,91.01
2018-01-29T01:52:55.685Z,91.25
2018-01-29T01:54:02.399Z,91.39
2018-01-29T01:55:09.875Z,91.54
2018-01-29T01:56:16.098Z,91.59
2018-01-29T01:57:22.290Z,91.29
2018-01-29T01:58:28.395Z,90.97
2018-01-29T01:59:34.722Z,91.06
2018-01-29T02:00:40.918Z,91.08
2018-01-29T02:01:46.095Z,91.18
2018-01-29T02:02:52.259Z,91.41
2018-01-29T02:03:58.395Z,91.18
2018-01-29T02:05:04.578Z,91.48
2018-01-29T02:06:10.797Z,91.56
2018-01-29T02:07:16.975Z,91.42
2018-01-29T02:08:22.867Z,91.11
2018-01-29T02:09:29.035Z,91.26
2018-01-29T02:10:35.270Z,91.17
2018-01-29T02:11:41.521Z,91.12
2018-01-29T02:12:47.712Z,91.40
2018-01-29T02:13:53.807Z,91.33
2018-01-29T02:15:00.005Z,91.37
2018-01-29T02:16:05.982Z,91.33
2018-01-29T02:17:11.889Z,91.58
2018-01-29T02:18:17.765Z,91.21
2018-01-29T02:19:23.613Z,90.97
2018-01-29T02:20:30.648Z,91.13
2018-01-29T02:21:36.824Z,91.17
2018-01-29T02:22:43.033Z,91.12
2018-01-29T02:23:49.232Z,90.93
2018-01-29T02:24:55.606Z,91.02
2018-01-29T02:26:01.886Z,91.32
2018-01-29T02:27:08.157Z,91.36
2018-01-29T02:28:15.097Z,91.62
2018-01-29T02:29:21.971Z,91.57
2018-01-29T02:30:28.170Z,91.76
2018-01-29T02:31:34.119Z,91.79
2018-01-29T02:32:40.273Z,91.78
2018-01-29T02:33:46.630Z,91.47
2018-01-29T02:34:52.862Z,91.56
2018-01-29T02:35:59.056Z,91.76
2018-01-29T02:37:07.012Z,91.97
2018-01-29T02:38:13.191Z,91.87
2018-01-29T02:39:19.327Z,91.91
2018-01-29T02:40:25.488Z,91.84
2018-01-29T02:41:31.658Z,91.73
2018-01-29T02:42:38.750Z,91.43
2018-01-29T02:43:45.019Z,91.35
2018-01-29T02:44:51.127Z,91.26
2018-01-29T02:45:57.195Z,91.33
2018-01-29T02:47:03.176Z,91.20
2018-01-29T02:48:09.130Z,91.46
2018-01-29T02:49:15.180Z,91.66
2018-01-29T02:50:21.227Z,91.62
2018-01-29T02:51:27.438Z,91.45
2018-01-29T02:52:33.502Z,91.48
2018-01-29T02:53:39.439Z,91.54
2018-01-29T02:54:45.460Z,91.75
2018-01-29T02:55:51.141Z,91.81
2018-01-29T02:56:56.830Z,91.56
2018-01-29T02:58:02.838Z,91.33
2018-01-29T02:59:09.657Z,91.07
2018-01-29T03:00:15.847Z,91.31
2018-01-29T03:01:21.790Z,91.61
2018-01-29T03:02:27.904Z,91.59
2018-01-29T03:03:33.868Z,91.38
2018-01-29T03:04:40.195Z,91.10
2018-01-29T03:05:46.409Z,91.01
2018-01-29T03:06:52.578Z,91.13
2018-01-29T03:07:59.455Z,91.11
2018-01-29T03:09:04.958Z,91.18
2018-01-29T03:10:11.204Z,91.36
2018-01-29T03:11:22.598Z,91.57
2018-01-29T03:12:28.787Z,91.94
2018-01-29T03:13:35.080Z,92.16
2018-01-29T03:14:41.201Z,92.03
2018-01-29T03:15:47.467Z,91.70
2018-01-29T03:16:56.695Z,92.00
2018-01-29T03:18:09.084Z,92.18
2018-01-29T03:19:16.140Z,92.18
2018-01-29T03:20:22.258Z,92.03
2018-01-29T03:21:33.758Z,92.17
2018-01-29T03:22:41.244Z,92.15
2018-01-29T03:23:47.153Z,92.06
2018-01-29T03:24:53.336Z,92.17
2018-01-29T03:26:00.564Z,92.24
2018-01-29T03:27:07.461Z,92.15
2018-01-29T03:28:14.236Z,91.96
2018-01-29T03:29:20.413Z,92.12
2018-01-29T03:30:26.595Z,92.05
2018-01-29T03:31:34.784Z,92.11
2018-01-29T03:32:41.072Z,92.14
2018-01-29T03:33:47.271Z,92.01
2018-01-29T03:34:53.388Z,91.71
2018-01-29T03:35:59.643Z,91.80
2018-01-29T03:37:05.836Z,92.07
2018-01-29T03:38:12.246Z,92.00
2018-01-29T03:39:18.406Z,92.02
2018-01-29T03:40:24.542Z,92.19
2018-01-29T03:41:30.652Z,92.05
2018-01-29T03:42:37.001Z,92.00
2018-01-29T03:43:43.196Z,91.99
2018-01-29T03:44:49.347Z,91.84
2018-01-29T03:45:55.649Z,91.85
2018-01-29T03:47:01.866Z,91.84
2018-01-29T03:48:07.773Z,91.67
2018-01-29T03:49:14.061Z,91.72
2018-01-29T03:50:20.156Z,91.81
2018-01-29T03:51:27.025Z,91.87
2018-01-29T03:52:35.039Z,91.80
2018-01-29T03:53:42.396Z,91.79
2018-01-29T03:54:48.646Z,91.75
2018-01-29T03:55:54.810Z,91.15
2018-01-29T03:57:00.938Z,91.28
2018-01-29T03:58:07.040Z,90.88
2018-01-29T03:59:13.981Z,91.02
2018-01-29T04:00:21.060Z,91.27
2018-01-29T04:01:27.251Z,90.83
2018-01-29T04:02:33.440Z,90.80
2018-01-29T04:03:39.714Z,90.81
2018-01-29T04:04:45.937Z,91.06
2018-01-29T04:05:52.193Z,90.89
2018-01-29T04:06:58.337Z,91.04
2018-01-29T04:08:04.480Z,91.28
2018-01-29T04:09:11.595Z,91.44
2018-01-29T04:10:17.759Z,91.53
2018-01-29T04:11:24.726Z,91.41
2018-01-29T04:12:33.895Z,91.46
2018-01-29T04:13:40.047Z,91.56
2018-01-29T04:14:47.302Z,91.64
2018-01-29T04:15:53.429Z,91.70
2018-01-29T04:17:00.386Z,91.39
2018-01-29T04:18:07.289Z,91.37
2018-01-29T04:19:16.321Z,91.40
2018-01-29T04:20:23.350Z,91.48
2018-01-29T04:21:29.653Z,91.54
2018-01-29T04:22:35.791Z,91.26
2018-01-29T04:23:43.395Z,91.51
2018-01-29T04:24:51.266Z,91.70
2018-01-29T04:25:57.452Z,91.69
2018-01-29T04:27:04.036Z,91.88
2018-01-29T04:28:10.277Z,91.60
2018-01-29T04:29:17.322Z,91.53
2018-01-29T04:30:23.535Z,91.56
2018-01-29T04:31:29.643Z,91.34
2018-01-29T04:32:35.782Z,91.30
2018-01-29T04:33:42.218Z,91.38
2018-01-29T04:34:48.371Z,91.24
2018-01-29T04:35:54.687Z,91.08
2018-01-29T04:37:00.965Z,91.12
2018-01-29T04:38:07.227Z,91.13
2018-01-29T04:39:13.189Z,91.33
2018-01-29T04:40:19.398Z,91.34
2018-01-29T04:41:25.682Z,91.13
2018-01-29T04:42:31.910Z,91.03
2018-01-29T04:43:38.379Z,91.07
2018-01-29T04:44:44.735Z,90.92
2018-01-29T04:46:01.503Z,90.90
2018-01-29T04:47:08.263Z,90.84
2018-01-29T04:48:16.160Z,90.92
2018-01-29T04:49:23.846Z,90.67
2018-01-29T04:50:29.449Z,90.78
2018-01-29T04:51:35.652Z,90.71
2018-01-29T04:52:41.611Z,90.50
2018-01-29T04:53:48.641Z,90.39
2018-01-29T04:54:54.819Z,90.48
2018-01-29T04:56:04.925Z,90.87
2018-01-29T04:57:13.231Z,90.97
2018-01-29T04:58:19.455Z,91.00
2018-01-29T04:59:25.383Z,91.00
2018-01-29T05:00:31.618Z,90.67
2018-01-29T05:01:37.858Z,90.57
2018-01-29T05:02:44.081Z,90.57
2018-01-29T05:03:53.513Z,90.38
2018-01-29T05:05:02.022Z,90.23
2018-01-29T05:06:07.966Z,90.15
2018-01-29T05:07:14.124Z,90.06
2018-01-29T05:08:20.391Z,89.97
2018-01-29T05:09:27.930Z,89.63
2018-01-29T05:10:33.903Z,89.59
2018-01-29T05:11:40.112Z,89.40
2018-01-29T05:12:47.406Z,89.41
2018-01-29T05:13:53.421Z,89.46
2018-01-29T05:14:59.973Z,89.59
2018-01-29T05:16:06.878Z,89.60
2018-01-29T05:17:13.146Z,89.93
2018-01-29T05:18:19.346Z,89.90
2018-01-29T05:19:25.597Z,89.84
2018-01-29T05:20:31.974Z,89.68
2018-01-29T05:21:38.542Z,89.68
2018-01-29T05:22:44.854Z,89.38
2018-01-29T05:23:50.985Z,89.17
2018-01-29T05:24:56.967Z,89.32
2018-01-29T05:26:02.817Z,89.24
2018-01-29T05:27:09.123Z,89.32
2018-01-29T05:28:14.596Z,89.35
2018-01-29T05:29:20.856Z,89.19
2018-01-29T05:30:27.192Z,89.09
2018-01-29T05:31:33.402Z,88.89
2018-01-29T05:32:39.590Z,88.89
2018-01-29T05:33:45.800Z,88.61
2018-01-29T05:34:52.580Z,88.55
2018-01-29T05:36:12.419Z,88.85
2018-01-29T05:38:56.940Z,89.10
2018-01-29T05:40:03.066Z,89.04
2018-01-29T05:41:08.730Z,88.96
2018-01-29T05:42:14.416Z,89.11
2018-01-29T05:43:20.544Z,89.30
2018-01-29T05:44:26.496Z,89.00
2018-01-29T05:45:32.440Z,88.90
2018-01-29T05:46:38.630Z,88.89
2018-01-29T05:47:44.857Z,89.02
2018-01-29T05:48:52.495Z,89.11
2018-01-29T05:49:58.440Z,88.88
2018-01-29T05:51:04.442Z,88.87
2018-01-29T05:52:10.433Z,88.62
2018-01-29T05:53:16.640Z,88.49
2018-01-29T05:54:22.732Z,88.46
2018-01-29T05:55:28.573Z,88.63
2018-01-29T05:56:34.754Z,88.97
2018-01-29T05:57:40.463Z,88.67
2018-01-29T05:58:46.499Z,88.76
2018-01-29T05:59:52.664Z,88.75
2018-01-29T06:00:58.842Z,88.56
2018-01-29T06:02:06.616Z,88.46
2018-01-29T06:03:12.708Z,88.67
2018-01-29T06:04:18.800Z,88.70
2018-01-29T06:05:25.605Z,88.42
2018-01-29T06:06:31.729Z,88.23
2018-01-29T06:07:37.873Z,88.19
2018-01-29T06:08:44.684Z,88.13
2018-01-29T06:09:51.101Z,88.22
2018-01-29T06:10:57.208Z,88.34
2018-01-29T06:12:03.358Z,88.37
2018-01-29T06:13:09.708Z,88.23
2018-01-29T06:14:15.869Z,88.07
2018-01-29T06:15:22.005Z,87.95
2018-01-29T06:16:28.195Z,88.11
2018-01-29T06:17:34.445Z,87.98
2018-01-29T06:18:40.211Z,88.11
2018-01-29T06:19:46.421Z,88.28
2018-01-29T06:20:52.619Z,88.26
2018-01-29T06:21:58.875Z,88.05
2018-01-29T06:23:05.982Z,88.22
2018-01-29T06:24:12.134Z,87.95
2018-01-29T06:25:18.285Z,87.73
2018-01-29T06:26:25.376Z,87.71
2018-01-29T06:27:31.343Z,87.86
2018-01-29T06:28:37.577Z,88.14
2018-01-29T06:29:43.742Z,88.02
2018-01-29T06:30:49.524Z,87.96
2018-01-29T06:31:55.740Z,87.79
2018-01-29T06:33:01.897Z,87.69
2018-01-29T06:34:07.986Z,87.57
2018-01-29T06:35:14.096Z,87.54
2018-01-29T06:36:20.312Z,87.94
2018-01-29T06:37:31.696Z,88.16
2018-01-29T06:38:37.847Z,87.96
2018-01-29T06:39:43.972Z,87.75
2018-01-29T06:40:50.146Z,87.51
2018-01-29T06:41:56.307Z,87.54
2018-01-29T06:43:02.516Z,87.40
2018-01-29T06:44:08.673Z,87.18
2018-01-29T06:45:20.089Z,87.06
2018-01-29T06:46:25.943Z,87.07
2018-01-29T06:47:32.283Z,87.28
2018-01-29T06:48:38.392Z,87.33
2018-01-29T06:49:44.589Z,87.45
2018-01-29T06:50:50.274Z,87.31
2018-01-29T06:51:56.384Z,87.43
2018-01-29T06:53:02.351Z,87.64
2018-01-29T06:54:08.258Z,87.80
2018-01-29T06:55:14.491Z,87.47
2018-01-29T06:56:20.705Z,87.37
2018-01-29T06:57:26.958Z,87.61
2018-01-29T06:58:33.139Z,87.43
2018-01-29T06:59:39.291Z,87.38
2018-01-29T07:00:45.433Z,87.26
2018-01-29T07:01:51.575Z,87.28
2018-01-29T07:02:57.748Z,87.35
2018-01-29T07:04:03.549Z,87.42
2018-01-29T07:05:09.836Z,87.59
2018-01-29T07:06:15.948Z,87.48
2018-01-29T07:07:22.090Z,87.49
2018-01-29T07:08:28.309Z,87.42
2018-01-29T07:09:34.442Z,87.50
2018-01-29T07:10:40.693Z,87.34
2018-01-29T07:11:46.885Z,87.22
2018-01-29T07:12:54.611Z,87.18
2018-01-29T07:14:00.788Z,87.29
2018-01-29T07:15:10.464Z,87.11
2018-01-29T07:16:16.616Z,87.06
2018-01-29T07:17:22.772Z,86.77
2018-01-29T07:18:29.360Z,86.64
2018-01-29T07:19:36.024Z,86.58
2018-01-29T07:20:41.953Z,86.77
2018-01-29T07:21:48.097Z,86.71
2018-01-29T07:22:54.341Z,86.83
2018-01-29T07:24:00.592Z,86.71
2018-01-29T07:25:07.311Z,86.49
2018-01-29T07:26:13.450Z,86.72
2018-01-29T07:27:21.925Z,86.63
2018-01-29T07:28:28.031Z,86.48
2018-01-29T07:29:34.160Z,86.38
2018-01-29T07:30:40.308Z,86.06
2018-01-29T07:31:46.460Z,86.22
2018-01-29T07:32:52.605Z,86.07
2018-01-29T07:33:58.008Z,86.14
2018-01-29T07:35:04.721Z,85.99
2018-01-29T07:36:10.828Z,86.20
2018-01-29T07:37:16.979Z,86.24
2018-01-29T07:38:23.101Z,86.50
2018-01-29T07:39:29.258Z,86.44
2018-01-29T07:40:35.376Z,86.44
2018-01-29T07:41:41.475Z,86.52
2018-01-29T07:42:47.665Z,86.29
2018-01-29T07:43:53.929Z,86.11
2018-01-29T07:45:00.086Z,86.12
2018-01-29T07:46:06.255Z,85.87
2018-01-29T07:47:12.369Z,85.95
2018-01-29T07:48:18.177Z,85.84
2018-01-29T07:49:24.366Z,85.91
2018-01-29T07:50:30.581Z,85.83
2018-01-29T07:51:37.355Z,85.90
2018-01-29T07:52:43.484Z,85.91
2018-01-29T07:53:49.655Z,86.12
2018-01-29T07:54:55.796Z,86.10
2018-01-29T07:56:01.997Z,86.17
2018-01-29T07:57:09.154Z,86.03
2018-01-29T07:58:15.292Z,85.96
2018-01-29T07:59:21.477Z,85.68
2018-01-29T08:00:27.584Z,85.75
2018-01-29T08:01:33.722Z,85.66
2018-01-29T08:02:39.835Z,85.89
2018-01-29T08:03:46.018Z,85.86
2018-01-29T08:04:51.981Z,85.83
2018-01-29T08:05:58.121Z,85.66
2018-01-29T08:07:04.268Z,85.56
2018-01-29T08:08:10.390Z,85.79
2018-01-29T08:09:16.568Z,85.93
2018-01-29T08:10:22.714Z,86.04
2018-01-29T08:11:28.878Z,85.84
2018-01-29T08:12:35.026Z,85.64
2018-01-29T08:13:41.188Z,85.67
2018-01-29T08:14:47.395Z,85.49
2018-01-29T08:15:53.524Z,85.50
2018-01-29T08:16:59.661Z,85.53
2018-01-29T08:18:05.815Z,85.68
2018-01-29T08:19:11.944Z,85.45
2018-01-29T08:20:18.040Z,85.46
2018-01-29T08:21:24.243Z,85.49
2018-01-29T08:22:30.398Z,85.34
2018-01-29T08:23:36.649Z,85.30
2018-01-29T08:24:42.895Z,85.48
2018-01-29T08:25:49.076Z,85.42
2018-01-29T08:26:55.516Z,85.28
2018-01-29T08:28:01.749Z,85.23
2018-01-29T08:29:08.300Z,85.33
2018-01-29T08:30:14.495Z,85.33
2018-01-29T08:31:20.877Z,85.23
2018-01-29T08:32:27.022Z,85.16
2018-01-29T08:33:33.121Z,85.07
2018-01-29T08:34:39.304Z,85.08
2018-01-29T08:35:45.509Z,85.15
2018-01-29T08:36:51.839Z,85.22
2018-01-29T08:37:57.956Z,85.24
2018-01-29T08:39:03.532Z,85.14
2018-01-29T08:40:09.403Z,85.13
2018-01-29T08:41:15.540Z,85.22
2018-01-29T08:42:21.784Z,85.08
2018-01-29T08:43:27.983Z,85.10
2018-01-29T08:44:33.958Z,85.10
2018-01-29T08:45:39.223Z,85.08
2018-01-29T08:46:45.195Z,85.21
2018-01-29T08:47:51.289Z,85.08
2018-01-29T08:48:57.428Z,84.74
2018-01-29T08:50:03.269Z,84.65
2018-01-29T08:51:09.523Z,84.59
2018-01-29T08:52:15.639Z,84.90
2018-01-29T08:53:21.769Z,85.26
2018-01-29T08:54:27.666Z,85.21
2018-01-29T08:55:34.033Z,85.06
2018-01-29T08:56:40.275Z,85.16
2018-01-29T08:57:50.402Z,85.27
2018-01-29T08:58:57.452Z,85.24
2018-01-29T09:00:26.885Z,84.88
2018-01-29T09:01:32.993Z,84.72
2018-01-29T09:02:39.168Z,84.29
2018-01-29T09:03:45.360Z,84.69
2018-01-29T09:04:51.521Z,84.82
2018-01-29T09:05:57.682Z,84.73
2018-01-29T09:07:03.796Z,84.56
2018-01-29T09:08:09.927Z,84.50
2018-01-29T09:09:16.074Z,84.61
2018-01-29T09:10:22.246Z,84.53
2018-01-29T09:11:28.379Z,84.44
2018-01-29T09:12:33.815Z,84.47
2018-01-29T09:13:39.986Z,84.59
2018-01-29T09:14:46.120Z,84.51
2018-01-29T09:15:52.265Z,84.26
2018-01-29T09:16:58.162Z,83.75
2018-01-29T09:18:04.335Z,83.45
2018-01-29T09:19:10.521Z,83.57
2018-01-29T09:20:16.030Z,83.83
2018-01-29T09:21:22.207Z,83.86
2018-01-29T09:22:28.416Z,83.71
2018-01-29T09:23:34.595Z,83.44
2018-01-29T09:24:40.791Z,83.23
2018-01-29T09:25:46.961Z,82.89
2018-01-29T09:26:53.158Z,83.12
2018-01-29T09:27:59.313Z,83.27
2018-01-29T09:29:05.457Z,83.14
2018-01-29T09:30:11.594Z,83.20
2018-01-29T09:31:17.736Z,83.14
2018-01-29T09:32:23.924Z,82.93
2018-01-29T09:33:30.139Z,83.08
2018-01-29T09:34:36.315Z,83.13
2018-01-29T09:35:42.487Z,82.87
2018-01-29T09:36:48.421Z,82.86
2018-01-29T09:37:54.601Z,82.68
2018-01-29T09:38:59.770Z,82.55
2018-01-29T09:40:06.645Z,82.75
2018-01-29T09:41:13.225Z,82.73
2018-01-29T09:42:19.433Z,83.06
2018-01-29T09:43:25.661Z,83.17
2018-01-29T09:44:31.819Z,82.74
2018-01-29T09:45:37.832Z,82.53
2018-01-29T09:46:43.956Z,82.58
2018-01-29T09:47:49.860Z,82.71
2018-01-29T09:48:55.849Z,82.54
2018-01-29T09:50:01.842Z,82.64
2018-01-29T09:51:07.964Z,82.30
2018-01-29T09:52:14.146Z,81.97
2018-01-29T09:53:20.313Z,81.98
2018-01-29T09:54:26.456Z,81.95
2018-01-29T09:55:32.629Z,81.98
2018-01-29T09:56:38.825Z,81.78
2018-01-29T09:57:44.874Z,81.49
2018-01-29T09:58:51.021Z,81.74
2018-01-29T09:59:56.810Z,81.64
2018-01-29T10:01:02.978Z,81.89
2018-01-29T10:02:09.134Z,81.91
2018-01-29T10:03:15.990Z,81.96
2018-01-29T10:04:22.131Z,81.94
2018-01-29T10:05:27.833Z,81.70
2018-01-29T10:06:34.054Z,81.54
2018-01-29T10:07:39.740Z,81.69
2018-01-29T10:08:45.906Z,81.72
2018-01-29T10:09:52.266Z,81.41
2018-01-29T10:10:58.452Z,81.61
2018-01-29T10:12:04.594Z,81.22
2018-01-29T10:13:10.840Z,81.21
2018-01-29T10:14:23.996Z,81.06
2018-01-29T10:15:30.773Z,80.96
2018-01-29T10:16:36.568Z,81.18
2018-01-29T10:17:42.761Z,81.02
2018-01-29T10:18:48.929Z,80.74
2018-01-29T10:19:55.302Z,80.23
2018-01-29T10:21:01.417Z,80.07
2018-01-29T10:22:07.587Z,80.22
2018-01-29T10:23:13.769Z,80.41
2018-01-29T10:24:25.163Z,80.24
2018-01-29T10:25:31.370Z,80.56
2018-01-29T10:26:37.211Z,80.29
2018-01-29T10:27:43.437Z,80.80
2018-01-29T10:28:49.609Z,80.78
2018-01-29T10:29:55.433Z,80.62
2018-01-29T10:31:00.961Z,80.36
2018-01-29T10:32:07.155Z,80.09
2018-01-29T10:33:13.280Z,80.10
2018-01-29T10:34:19.470Z,80.01
2018-01-29T10:35:25.629Z,80.15
2018-01-29T10:36:31.752Z,80.22
2018-01-29T10:37:42.880Z,80.47
2018-01-29T10:38:49.012Z,80.47
2018-01-29T10:39:55.217Z,80.20
2018-01-29T10:41:01.323Z,80.09
2018-01-29T10:42:07.553Z,80.11
2018-01-29T10:43:14.368Z,80.07
2018-01-29T10:44:22.178Z,80.02
2018-01-29T10:45:29.286Z,80.21
2018-01-29T10:46:36.604Z,80.27
2018-01-29T10:47:44.854Z,80.46
2018-01-29T10:48:52.148Z,80.15
2018-01-29T10:49:58.780Z,80.37
2018-01-29T10:51:05.328Z,80.54
2018-01-29T10:52:12.334Z,80.18
2018-01-29T10:53:18.946Z,80.16
2018-01-29T10:54:26.131Z,80.39
2018-01-29T10:55:33.027Z,80.06
2018-01-29T10:56:41.000Z,79.83
2018-01-29T10:57:49.023Z,79.70
2018-01-29T10:58:56.679Z,79.38
2018-01-29T11:00:03.485Z,79.16
2018-01-29T11:01:15.257Z,78.99
2018-01-29T11:02:22.718Z,79.05
2018-01-29T11:03:29.573Z,79.34
2018-01-29T11:04:37.919Z,79.58
2018-01-29T11:05:45.534Z,79.34
2018-01-29T11:06:52.429Z,79.29
2018-01-29T11:07:59.048Z,79.69
2018-01-29T11:09:06.622Z,79.08
2018-01-29T11:10:13.556Z,79.15
2018-01-29T11:11:20.296Z,79.32
2018-01-29T11:12:26.773Z,78.92
2018-01-29T11:13:33.723Z,78.67
2018-01-29T11:14:40.819Z,78.84
2018-01-29T11:15:47.740Z,78.93
2018-01-29T11:16:55.605Z,78.76
2018-01-29T11:18:04.383Z,78.57
2018-01-29T11:19:11.111Z,78.47
2018-01-29T11:20:18.173Z,78.57
2018-01-29T11:21:26.432Z,78.34
2018-01-29T11:22:33.809Z,78.43
2018-01-29T11:23:41.305Z,78.25
2018-01-29T11:24:47.895Z,78.11
2018-01-29T11:25:54.664Z,78.08
2018-01-29T11:27:02.267Z,77.78
2018-01-29T11:28:09.824Z,77.39
2018-01-29T11:29:16.108Z,77.38
2018-01-29T11:30:22.298Z,77.60
2018-01-29T11:31:28.536Z,77.91
2018-01-29T11:32:34.724Z,77.73
2018-01-29T11:33:40.840Z,77.35
2018-01-29T11:34:49.182Z,77.54
2018-01-29T11:35:55.318Z,77.56
2018-01-29T11:37:01.435Z,77.68
2018-01-29T11:38:09.436Z,77.32
2018-01-29T11:39:15.596Z,77.63
2018-01-29T11:40:21.387Z,77.43
2018-01-29T11:41:27.601Z,77.32
2018-01-29T11:42:34.049Z,77.03
2018-01-29T11:43:40.168Z,77.33
2018-01-29T11:44:46.422Z,77.06
2018-01-29T11:45:54.233Z,77.14
2018-01-29T11:47:00.494Z,77.52
2018-01-29T11:48:06.713Z,77.03
2018-01-29T11:49:13.286Z,77.11
2018-01-29T11:50:20.228Z,77.45
2018-01-29T11:51:26.654Z,77.27
2018-01-29T11:52:33.595Z,77.22
2018-01-29T11:53:40.028Z,77.31
2018-01-29T11:54:46.250Z,77.50
2018-01-29T11:55:52.640Z,77.49
2018-01-29T11:57:05.856Z,77.38
2018-01-29T11:58:12.103Z,77.39
2018-01-29T11:59:18.464Z,77.20
2018-01-29T12:00:24.591Z,77.16
2018-01-29T12:01:30.774Z,76.53
2018-01-29T12:02:36.927Z,76.87
2018-01-29T12:03:43.142Z,76.94
2018-01-29T12:04:49.353Z,76.82
2018-01-29T12:05:55.478Z,76.78
2018-01-29T12:07:01.622Z,76.87
2018-01-29T12:08:07.783Z,76.69
2018-01-29T12:09:13.956Z,76.61
2018-01-29T12:10:20.155Z,76.55
2018-01-29T12:11:26.021Z,76.31
2018-01-29T12:12:32.160Z,76.38
2018-01-29T12:13:38.441Z,76.05
2018-01-29T12:14:44.673Z,76.04
2018-01-29T12:15:50.825Z,76.45
2018-01-29T12:16:56.961Z,76.26
2018-01-29T12:18:03.156Z,76.11
2018-01-29T12:19:15.679Z,75.99
2018-01-29T12:20:15.857Z,75.84
2018-01-29T12:21:22.139Z,76.19
2018-01-29T12:22:28.444Z,75.84
2018-01-29T12:23:34.760Z,75.87
2018-01-29T12:24:40.868Z,75.43
2018-01-29T12:25:47.664Z,75.67
2018-01-29T12:26:53.957Z,75.82
2018-01-29T12:28:00.113Z,75.93
2018-01-29T12:29:06.401Z,75.66
2018-01-29T12:30:12.219Z,75.73
2018-01-29T12:31:18.335Z,75.28
2018-01-29T12:32:24.626Z,75.41
2018-01-29T12:33:30.863Z,75.07
2018-01-29T12:34:37.036Z,75.07
2018-01-29T12:35:43.128Z,74.87
2018-01-29T12:36:49.283Z,75.12
2018-01-29T12:37:56.532Z,75.36
2018-01-29T12:39:05.940Z,75.63
2018-01-29T12:40:13.843Z,75.79
2018-01-29T12:41:20.062Z,75.66
2018-01-29T12:42:26.211Z,75.83
2018-01-29T12:43:32.319Z,75.92
2018-01-29T12:44:38.509Z,76.34
2018-01-29T12:45:45.794Z,75.82
2018-01-29T12:46:52.056Z,75.61
2018-01-29T12:47:58.195Z,75.44
2018-01-29T12:49:04.327Z,75.37
2018-01-29T12:50:10.572Z,75.45
2018-01-29T12:51:16.598Z,75.41
2018-01-29T12:52:22.780Z,75.44
2018-01-29T12:53:28.952Z,75.46
2018-01-29T12:54:35.085Z,75.34
2018-01-29T12:55:40.505Z,75.37
2018-01-29T12:56:46.665Z,75.61
2018-01-29T12:57:52.802Z,75.41
2018-01-29T12:59:00.173Z,75.49
2018-01-29T13:00:06.371Z,75.23
2018-01-29T13:01:12.274Z,75.17
2018-01-29T13:02:18.416Z,75.15
2018-01-29T13:03:24.669Z,75.23
2018-01-29T13:04:30.880Z,75.40
2018-01-29T13:05:37.018Z,75.24
2018-01-29T13:06:43.172Z,75.09
2018-01-29T13:07:49.276Z,75.48
2018-01-29T13:08:55.392Z,75.54
2018-01-29T13:10:02.475Z,75.66
2018-01-29T13:11:13.347Z,75.65
2018-01-29T13:12:19.650Z,75.71
2018-01-29T13:13:25.767Z,75.67
2018-01-29T13:14:32.271Z,75.92
2018-01-29T13:15:38.512Z,75.55
2018-01-29T13:16:44.726Z,75.66
2018-01-29T13:17:50.918Z,75.63
2018-01-29T13:18:57.035Z,75.85
2018-01-29T13:20:03.212Z,75.79
2018-01-29T13:21:09.400Z,75.45
2018-01-29T13:22:15.550Z,75.53
2018-01-29T13:23:22.708Z,75.49
2018-01-29T13:24:28.885Z,75.73
2018-01-29T13:25:35.086Z,75.68
2018-01-29T13:26:47.347Z,75.63
2018-01-29T13:27:53.468Z,75.82
2018-01-29T13:28:59.624Z,75.74
2018-01-29T13:30:05.801Z,75.90
2018-01-29T13:31:12.010Z,75.70
2018-01-29T13:32:18.153Z,75.62
2018-01-29T13:33:24.290Z,75.45
2018-01-29T13:34:30.428Z,75.68
2018-01-29T13:35:36.582Z,75.55
2018-01-29T13:36:42.720Z,75.72
2018-01-29T13:37:48.828Z,75.17
2018-01-29T13:38:57.316Z,75.34
2018-01-29T13:40:03.466Z,75.42
2018-01-29T13:41:09.710Z,75.65
2018-01-29T13:42:15.543Z,75.84
2018-01-29T13:43:21.767Z,75.76
2018-01-29T13:44:27.905Z,75.84
2018-01-29T13:45:34.060Z,75.85
2018-01-29T13:46:40.181Z,75.79
2018-01-29T13:47:46.318Z,75.88
2018-01-29T13:48:52.457Z,75.85
2018-01-29T13:49:58.600Z,75.74
2018-01-29T13:51:05.030Z,75.71
2018-01-29T13:52:11.181Z,75.41
2018-01-29T13:53:17.355Z,75.25
2018-01-29T13:54:23.604Z,74.91
2018-01-29T13:55:29.599Z,74.55
2018-01-29T13:56:35.108Z,74.78
2018-01-29T13:57:41.272Z,74.87
2018-01-29T13:58:47.425Z,75.22
2018-01-29T13:59:52.895Z,74.87
2018-01-29T14:00:59.087Z,74.74
2018-01-29T14:02:05.289Z,74.44
2018-01-29T14:03:11.440Z,74.65
2018-01-29T14:04:16.809Z,74.71
2018-01-29T14:05:22.964Z,74.70
2018-01-29T14:06:29.077Z,74.08
2018-01-29T14:07:35.282Z,74.68
2018-01-29T14:08:41.407Z,74.64
2018-01-29T14:09:47.544Z,74.65
2018-01-29T14:10:53.698Z,74.22
2018-01-29T14:11:59.818Z,74.51
2018-01-29T14:13:06.055Z,74.65
2018-01-29T14:14:12.219Z,74.53
2018-01-29T14:15:18.050Z,74.71
2018-01-29T14:16:24.958Z,74.50
2018-01-29T14:17:31.175Z,74.83
2018-01-29T14:18:37.369Z,74.67